sensor_id;sensor_type;location;lat;lon;timestamp;pressure;altitude;pressure_sealevel;temperature;humidity
81125;BME280;72192;52.114;5.424;2024-02-23T00:01:57;98775.34;;;3.73;100.00
81125;BME280;72192;52.114;5.424;2024-02-23T00:04:25;98771.81;;;3.81;100.00
81125;BME280;72192;52.114;5.424;2024-02-23T00:06:52;98777.97;;;3.89;100.00
81125;BME280;72192;52.114;5.424;2024-02-23T00:09:19;98775.28;;;3.97;100.00
81125;BME280;72192;52.114;5.424;2024-02-23T00:14:16;98768.75;;;4.00;100.00
81125;BME280;72192;52.114;5.424;2024-02-23T00:16:48;98756.56;;;4.06;100.00
81125;BME280;72192;52.114;5.424;2024-02-23T00:19:16;98776.34;;;4.19;100.00
81125;BME280;72192;52.114;5.424;2024-02-23T00:21:49;98787.81;;;4.28;100.00
81125;BME280;72192;52.114;5.424;2024-02-23T00:24:20;98786.34;;;4.25;100.00
81125;BME280;72192;52.114;5.424;2024-02-23T00:26:48;98777.69;;;4.15;100.00
81125;BME280;72192;52.114;5.424;2024-02-23T00:29:19;98783.00;;;4.23;100.00
81125;BME280;72192;52.114;5.424;2024-02-23T00:31:49;98776.16;;;4.21;100.00
81125;BME280;72192;52.114;5.424;2024-02-23T00:34:18;98781.00;;;4.25;100.00
81125;BME280;72192;52.114;5.424;2024-02-23T00:36:50;98801.41;;;4.41;100.00
81125;BME280;72192;52.114;5.424;2024-02-23T00:39:18;98802.75;;;4.45;100.00
81125;BME280;72192;52.114;5.424;2024-02-23T00:41:46;98798.75;;;4.41;100.00
81125;BME280;72192;52.114;5.424;2024-02-23T00:44:13;98789.34;;;4.53;100.00
81125;BME280;72192;52.114;5.424;2024-02-23T00:49:17;98827.28;;;4.72;100.00
81125;BME280;72192;52.114;5.424;2024-02-23T00:51:44;98820.47;;;4.69;100.00
81125;BME280;72192;52.114;5.424;2024-02-23T00:57:05;98831.19;;;4.61;100.00
81125;BME280;72192;52.114;5.424;2024-02-23T00:59:32;98838.88;;;4.64;100.00
81125;BME280;72192;52.114;5.424;2024-02-23T01:04:27;98832.75;;;4.55;100.00
81125;BME280;72192;52.114;5.424;2024-02-23T01:06:54;98826.56;;;4.55;100.00
81125;BME280;72192;52.114;5.424;2024-02-23T01:09:21;98844.44;;;4.54;100.00
81125;BME280;72192;52.114;5.424;2024-02-23T01:11:48;98862.19;;;4.47;100.00
81125;BME280;72192;52.114;5.424;2024-02-23T01:14:15;98869.78;;;4.27;100.00
81125;BME280;72192;52.114;5.424;2024-02-23T01:16:42;98873.19;;;4.05;100.00
81125;BME280;72192;52.114;5.424;2024-02-23T01:19:10;98896.72;;;4.01;100.00
81125;BME280;72192;52.114;5.424;2024-02-23T01:21:38;98881.56;;;3.94;100.00
81125;BME280;72192;52.114;5.424;2024-02-23T01:26:35;98873.94;;;3.74;100.00
81125;BME280;72192;52.114;5.424;2024-02-23T01:29:07;98887.59;;;3.63;100.00
81125;BME280;72192;52.114;5.424;2024-02-23T01:31:34;98895.59;;;3.63;100.00
81125;BME280;72192;52.114;5.424;2024-02-23T01:34:03;98898.13;;;3.65;100.00
81125;BME280;72192;52.114;5.424;2024-02-23T01:38:57;98923.63;;;3.67;100.00
81125;BME280;72192;52.114;5.424;2024-02-23T01:43:56;98891.63;;;3.59;100.00
81125;BME280;72192;52.114;5.424;2024-02-23T01:46:24;98893.09;;;3.78;100.00
81125;BME280;72192;52.114;5.424;2024-02-23T01:48:51;98915.75;;;3.90;100.00
81125;BME280;72192;52.114;5.424;2024-02-23T01:51:19;98908.75;;;4.06;100.00
81125;BME280;72192;52.114;5.424;2024-02-23T01:53:47;98912.88;;;4.16;100.00
81125;BME280;72192;52.114;5.424;2024-02-23T01:56:20;98930.88;;;4.22;100.00
81125;BME280;72192;52.114;5.424;2024-02-23T01:58:47;98926.88;;;4.26;100.00
81125;BME280;72192;52.114;5.424;2024-02-23T02:01:15;98932.69;;;4.30;100.00
81125;BME280;72192;52.114;5.424;2024-02-23T02:03:42;98930.03;;;4.30;100.00
81125;BME280;72192;52.114;5.424;2024-02-23T02:06:22;98937.19;;;4.29;100.00
81125;BME280;72192;52.114;5.424;2024-02-23T02:08:50;98948.06;;;4.28;100.00
81125;BME280;72192;52.114;5.424;2024-02-23T02:13:48;98942.91;;;4.18;100.00
81125;BME280;72192;52.114;5.424;2024-02-23T02:16:19;98928.56;;;4.11;100.00
81125;BME280;72192;52.114;5.424;2024-02-23T02:18:46;98938.94;;;4.14;100.00
81125;BME280;72192;52.114;5.424;2024-02-23T02:21:15;98947.44;;;4.10;100.00
81125;BME280;72192;52.114;5.424;2024-02-23T02:23:43;98936.75;;;4.01;100.00
81125;BME280;72192;52.114;5.424;2024-02-23T02:26:11;98927.94;;;3.93;100.00
81125;BME280;72192;52.114;5.424;2024-02-23T02:28:40;98922.59;;;3.93;100.00
81125;BME280;72192;52.114;5.424;2024-02-23T02:31:09;98939.94;;;4.05;100.00
81125;BME280;72192;52.114;5.424;2024-02-23T02:33:36;98940.59;;;4.07;100.00
81125;BME280;72192;52.114;5.424;2024-02-23T02:38:33;98949.59;;;4.14;100.00
81125;BME280;72192;52.114;5.424;2024-02-23T02:43:31;98931.78;;;3.98;100.00
81125;BME280;72192;52.114;5.424;2024-02-23T02:45:58;98960.97;;;4.08;100.00
81125;BME280;72192;52.114;5.424;2024-02-23T02:48:26;98949.09;;;4.11;100.00
81125;BME280;72192;52.114;5.424;2024-02-23T02:53:24;98941.63;;;3.98;100.00
81125;BME280;72192;52.114;5.424;2024-02-23T02:58:20;98952.78;;;4.01;100.00
81125;BME280;72192;52.114;5.424;2024-02-23T03:00:53;98959.78;;;4.11;100.00
81125;BME280;72192;52.114;5.424;2024-02-23T03:03:20;98966.81;;;4.03;100.00
81125;BME280;72192;52.114;5.424;2024-02-23T03:05:52;98950.97;;;3.94;100.00
81125;BME280;72192;52.114;5.424;2024-02-23T03:08:20;98964.16;;;4.03;100.00
81125;BME280;72192;52.114;5.424;2024-02-23T03:10:47;98964.97;;;4.04;100.00
81125;BME280;72192;52.114;5.424;2024-02-23T03:13:15;98971.63;;;4.00;100.00
81125;BME280;72192;52.114;5.424;2024-02-23T03:15:42;98971.28;;;4.03;100.00
81125;BME280;72192;52.114;5.424;2024-02-23T03:23:16;98962.97;;;3.90;100.00
81125;BME280;72192;52.114;5.424;2024-02-23T03:25:45;98967.47;;;3.81;100.00
81125;BME280;72192;52.114;5.424;2024-02-23T03:28:15;98985.16;;;3.90;100.00
81125;BME280;72192;52.114;5.424;2024-02-23T03:30:44;98977.50;;;3.95;100.00
81125;BME280;72192;52.114;5.424;2024-02-23T03:33:11;98980.00;;;3.89;100.00
81125;BME280;72192;52.114;5.424;2024-02-23T03:35:38;98985.34;;;3.89;100.00
81125;BME280;72192;52.114;5.424;2024-02-23T03:38:05;98994.00;;;3.91;100.00
81125;BME280;72192;52.114;5.424;2024-02-23T03:43:03;98990.50;;;3.82;100.00
81125;BME280;72192;52.114;5.424;2024-02-23T03:48:06;99010.84;;;3.83;100.00
81125;BME280;72192;52.114;5.424;2024-02-23T03:50:34;99000.34;;;3.82;100.00
81125;BME280;72192;52.114;5.424;2024-02-23T03:53:02;99009.00;;;3.92;100.00
81125;BME280;72192;52.114;5.424;2024-02-23T03:58:01;98980.81;;;3.81;100.00
81125;BME280;72192;52.114;5.424;2024-02-23T04:00:35;99020.88;;;3.97;100.00
81125;BME280;72192;52.114;5.424;2024-02-23T04:03:02;98996.84;;;3.81;100.00
81125;BME280;72192;52.114;5.424;2024-02-23T04:05:31;98979.31;;;3.70;100.00
81125;BME280;72192;52.114;5.424;2024-02-23T04:08:00;99009.88;;;3.84;100.00
81125;BME280;72192;52.114;5.424;2024-02-23T04:10:34;99023.53;;;3.89;100.00
81125;BME280;72192;52.114;5.424;2024-02-23T04:15:40;99030.22;;;3.85;100.00
81125;BME280;72192;52.114;5.424;2024-02-23T04:18:07;99017.34;;;3.81;100.00
81125;BME280;72192;52.114;5.424;2024-02-23T04:20:34;99014.19;;;3.77;100.00
81125;BME280;72192;52.114;5.424;2024-02-23T04:23:01;99019.53;;;3.85;100.00
81125;BME280;72192;52.114;5.424;2024-02-23T04:28:00;99042.38;;;3.80;100.00
81125;BME280;72192;52.114;5.424;2024-02-23T04:30:27;99009.34;;;3.72;100.00
81125;BME280;72192;52.114;5.424;2024-02-23T04:35:24;99023.19;;;3.68;100.00
81125;BME280;72192;52.114;5.424;2024-02-23T04:37:51;98998.16;;;3.53;100.00
81125;BME280;72192;52.114;5.424;2024-02-23T04:40:19;99025.38;;;3.64;100.00
81125;BME280;72192;52.114;5.424;2024-02-23T04:42:48;99029.00;;;3.63;100.00
81125;BME280;72192;52.114;5.424;2024-02-23T04:45:15;99037.00;;;3.63;100.00
81125;BME280;72192;52.114;5.424;2024-02-23T04:47:42;99049.88;;;3.68;100.00
81125;BME280;72192;52.114;5.424;2024-02-23T04:52:58;99017.19;;;3.58;100.00
81125;BME280;72192;52.114;5.424;2024-02-23T04:55:26;99042.72;;;3.77;100.00
81125;BME280;72192;52.114;5.424;2024-02-23T04:57:53;99021.34;;;3.60;100.00
81125;BME280;72192;52.114;5.424;2024-02-23T05:00:20;99047.88;;;3.78;100.00
81125;BME280;72192;52.114;5.424;2024-02-23T05:02:47;99054.41;;;3.84;100.00
81125;BME280;72192;52.114;5.424;2024-02-23T05:05:14;99057.75;;;3.94;100.00
81125;BME280;72192;52.114;5.424;2024-02-23T05:07:43;99049.41;;;3.89;100.00
81125;BME280;72192;52.114;5.424;2024-02-23T05:10:12;99011.69;;;3.76;100.00
81125;BME280;72192;52.114;5.424;2024-02-23T05:12:42;99042.88;;;3.91;100.00
81125;BME280;72192;52.114;5.424;2024-02-23T05:15:12;99056.41;;;3.98;100.00
81125;BME280;72192;52.114;5.424;2024-02-23T05:20:09;99030.22;;;3.93;100.00
81125;BME280;72192;52.114;5.424;2024-02-23T05:22:44;99050.56;;;4.11;100.00
81125;BME280;72192;52.114;5.424;2024-02-23T05:25:15;99026.38;;;4.04;100.00
81125;BME280;72192;52.114;5.424;2024-02-23T05:27:48;99032.03;;;4.09;100.00
81125;BME280;72192;52.114;5.424;2024-02-23T05:30:15;99047.06;;;4.18;100.00
81125;BME280;72192;52.114;5.424;2024-02-23T05:32:42;99046.06;;;4.19;100.00
81125;BME280;72192;52.114;5.424;2024-02-23T05:35:11;99058.75;;;4.25;100.00
81125;BME280;72192;52.114;5.424;2024-02-23T05:37:38;99042.38;;;4.20;100.00
81125;BME280;72192;52.114;5.424;2024-02-23T05:40:05;99049.22;;;4.31;100.00
81125;BME280;72192;52.114;5.424;2024-02-23T05:42:40;99029.84;;;4.21;100.00
81125;BME280;72192;52.114;5.424;2024-02-23T05:45:09;99037.69;;;4.30;100.00
81125;BME280;72192;52.114;5.424;2024-02-23T05:47:38;99035.38;;;4.27;100.00
81125;BME280;72192;52.114;5.424;2024-02-23T05:52:38;99045.53;;;4.32;100.00
81125;BME280;72192;52.114;5.424;2024-02-23T05:55:07;99045.53;;;4.32;100.00
81125;BME280;72192;52.114;5.424;2024-02-23T05:57:38;99020.34;;;4.18;100.00
81125;BME280;72192;52.114;5.424;2024-02-23T06:00:06;99043.38;;;4.36;100.00
81125;BME280;72192;52.114;5.424;2024-02-23T06:02:43;99023.38;;;4.23;100.00
81125;BME280;72192;52.114;5.424;2024-02-23T06:05:12;99036.38;;;4.35;100.00
81125;BME280;72192;52.114;5.424;2024-02-23T06:07:49;99052.88;;;4.46;100.00
81125;BME280;72192;52.114;5.424;2024-02-23T06:15:31;99052.53;;;4.49;100.00
81125;BME280;72192;52.114;5.424;2024-02-23T06:17:58;99060.53;;;4.57;100.00
81125;BME280;72192;52.114;5.424;2024-02-23T06:20:27;99045.34;;;4.50;100.00
81125;BME280;72192;52.114;5.424;2024-02-23T06:22:56;99054.53;;;4.55;100.00
81125;BME280;72192;52.114;5.424;2024-02-23T06:25:30;99065.88;;;4.66;100.00
81125;BME280;72192;52.114;5.424;2024-02-23T06:28:05;99057.69;;;4.67;100.00
81125;BME280;72192;52.114;5.424;2024-02-23T06:30:35;99058.19;;;4.63;100.00
81125;BME280;72192;52.114;5.424;2024-02-23T06:33:04;99054.00;;;4.60;100.00
81125;BME280;72192;52.114;5.424;2024-02-23T06:35:33;99060.00;;;4.70;100.00
81125;BME280;72192;52.114;5.424;2024-02-23T06:38:00;99070.84;;;4.77;100.00
81125;BME280;72192;52.114;5.424;2024-02-23T06:43:13;99065.31;;;4.78;100.00
81125;BME280;72192;52.114;5.424;2024-02-23T06:45:40;99065.84;;;4.82;100.00
81125;BME280;72192;52.114;5.424;2024-02-23T06:50:35;99058.47;;;4.84;100.00
81125;BME280;72192;52.114;5.424;2024-02-23T06:55:34;99066.47;;;4.92;100.00
81125;BME280;72192;52.114;5.424;2024-02-23T07:00:35;99041.59;;;4.83;100.00
81125;BME280;72192;52.114;5.424;2024-02-23T07:03:02;99054.59;;;4.95;100.00
81125;BME280;72192;52.114;5.424;2024-02-23T07:05:30;99062.25;;;5.06;100.00
81125;BME280;72192;52.114;5.424;2024-02-23T07:07:58;99073.13;;;5.04;99.33
81125;BME280;72192;52.114;5.424;2024-02-23T07:10:26;99063.25;;;5.05;100.00
81125;BME280;72192;52.114;5.424;2024-02-23T07:15:26;99045.91;;;4.93;99.79
81125;BME280;72192;52.114;5.424;2024-02-23T07:17:54;99069.06;;;5.08;99.85
81125;BME280;72192;52.114;5.424;2024-02-23T07:20:22;99078.75;;;5.09;99.94
81125;BME280;72192;52.114;5.424;2024-02-23T07:25:19;99090.44;;;5.16;98.25
81125;BME280;72192;52.114;5.424;2024-02-23T07:27:49;99063.03;;;5.14;98.59
81125;BME280;72192;52.114;5.424;2024-02-23T07:30:17;99076.72;;;5.19;98.77
81125;BME280;72192;52.114;5.424;2024-02-23T07:32:44;99073.72;;;5.23;98.95
81125;BME280;72192;52.114;5.424;2024-02-23T07:35:25;99060.66;;;5.19;98.69
81125;BME280;72192;52.114;5.424;2024-02-23T07:37:58;99054.66;;;5.17;98.62
81125;BME280;72192;52.114;5.424;2024-02-23T07:40:29;99033.66;;;5.06;98.41
81125;BME280;72192;52.114;5.424;2024-02-23T07:43:00;99052.00;;;5.17;98.16
81125;BME280;72192;52.114;5.424;2024-02-23T07:45:29;99031.78;;;5.15;98.50
81125;BME280;72192;52.114;5.424;2024-02-23T07:47:57;99040.72;;;5.30;98.15
81125;BME280;72192;52.114;5.424;2024-02-23T07:50:25;99025.34;;;5.32;97.35
81125;BME280;72192;52.114;5.424;2024-02-23T07:52:53;99035.47;;;5.45;96.99
81125;BME280;72192;52.114;5.424;2024-02-23T07:55:20;99043.44;;;5.53;96.68
81125;BME280;72192;52.114;5.424;2024-02-23T07:57:47;99049.09;;;5.58;95.82
81125;BME280;72192;52.114;5.424;2024-02-23T08:00:15;99026.06;;;5.49;96.02
81125;BME280;72192;52.114;5.424;2024-02-23T08:02:52;99023.16;;;5.59;95.18
81125;BME280;72192;52.114;5.424;2024-02-23T08:05:21;99017.19;;;5.48;95.30
81125;BME280;72192;52.114;5.424;2024-02-23T08:07:49;99021.72;;;5.48;95.49
81125;BME280;72192;52.114;5.424;2024-02-23T08:13:13;99001.25;;;5.32;94.66
81125;BME280;72192;52.114;5.424;2024-02-23T08:15:50;99042.91;;;5.58;95.76
81125;BME280;72192;52.114;5.424;2024-02-23T08:18:18;99009.50;;;5.54;94.33
81125;BME280;72192;52.114;5.424;2024-02-23T08:20:54;99017.97;;;5.57;95.25
81125;BME280;72192;52.114;5.424;2024-02-23T08:23:21;99015.81;;;5.61;94.93
81125;BME280;72192;52.114;5.424;2024-02-23T08:25:49;99034.19;;;5.64;94.91
81125;BME280;72192;52.114;5.424;2024-02-23T08:28:20;99019.78;;;5.65;94.54
81125;BME280;72192;52.114;5.424;2024-02-23T08:30:47;99033.34;;;5.63;94.44
81125;BME280;72192;52.114;5.424;2024-02-23T08:33:15;99037.88;;;5.63;94.26
81125;BME280;72192;52.114;5.424;2024-02-23T08:35:42;99014.63;;;5.63;93.29
81125;BME280;72192;52.114;5.424;2024-02-23T08:38:14;99024.50;;;5.63;93.88
81125;BME280;72192;52.114;5.424;2024-02-23T08:40:41;99020.31;;;5.60;93.78
81125;BME280;72192;52.114;5.424;2024-02-23T08:43:08;99017.81;;;5.59;94.43
81125;BME280;72192;52.114;5.424;2024-02-23T08:45:35;99012.94;;;5.62;94.10
81125;BME280;72192;52.114;5.424;2024-02-23T08:48:03;99010.28;;;5.62;94.12
81125;BME280;72192;52.114;5.424;2024-02-23T08:50:30;99015.63;;;5.62;93.32
81125;BME280;72192;52.114;5.424;2024-02-23T08:52:57;99010.44;;;5.61;94.11
81125;BME280;72192;52.114;5.424;2024-02-23T08:55:24;99013.78;;;5.63;94.58
81125;BME280;72192;52.114;5.424;2024-02-23T08:57:55;99017.63;;;5.60;95.74
81125;BME280;72192;52.114;5.424;2024-02-23T09:00:22;99006.16;;;5.52;96.90
81125;BME280;72192;52.114;5.424;2024-02-23T09:02:57;99010.19;;;5.47;96.54
81125;BME280;72192;52.114;5.424;2024-02-23T09:05:25;98982.63;;;5.39;97.49
81125;BME280;72192;52.114;5.424;2024-02-23T09:07:56;99017.53;;;5.54;96.74
81125;BME280;72192;52.114;5.424;2024-02-23T09:10:27;98992.00;;;5.43;96.27
81125;BME280;72192;52.114;5.424;2024-02-23T09:12:56;99003.63;;;5.50;97.16
81125;BME280;72192;52.114;5.424;2024-02-23T09:15:24;98995.59;;;5.50;98.10
81125;BME280;72192;52.114;5.424;2024-02-23T09:17:53;99014.41;;;5.42;98.52
81125;BME280;72192;52.114;5.424;2024-02-23T09:20:43;99033.41;;;5.55;98.24
81125;BME280;72192;52.114;5.424;2024-02-23T09:23:14;99036.72;;;5.57;99.15
81125;BME280;72192;52.114;5.424;2024-02-23T09:25:42;99024.06;;;5.51;98.53
81125;BME280;72192;52.114;5.424;2024-02-23T09:28:11;99011.16;;;5.55;98.03
81125;BME280;72192;52.114;5.424;2024-02-23T09:33:08;99037.00;;;5.70;97.40
81125;BME280;72192;52.114;5.424;2024-02-23T09:38:20;99013.41;;;5.66;96.99
81125;BME280;72192;52.114;5.424;2024-02-23T09:40:49;99021.81;;;5.63;97.18
81125;BME280;72192;52.114;5.424;2024-02-23T09:43:17;99031.78;;;5.69;97.33
81125;BME280;72192;52.114;5.424;2024-02-23T09:46:25;99044.28;;;5.76;97.30
81125;BME280;72192;52.114;5.424;2024-02-23T09:48:54;99043.66;;;5.74;97.92
81125;BME280;72192;52.114;5.424;2024-02-23T09:51:34;99052.50;;;5.75;98.44
81125;BME280;72192;52.114;5.424;2024-02-23T09:54:05;99060.59;;;5.67;99.26
81125;BME280;72192;52.114;5.424;2024-02-23T09:56:42;99065.47;;;5.63;99.67
81125;BME280;72192;52.114;5.424;2024-02-23T09:59:10;99014.47;;;5.34;99.99
81125;BME280;72192;52.114;5.424;2024-02-23T10:01:43;99056.28;;;5.58;99.88
81125;BME280;72192;52.114;5.424;2024-02-23T10:06:41;99036.25;;;5.76;99.34
81125;BME280;72192;52.114;5.424;2024-02-23T10:11:39;99052.84;;;6.03;97.81
81125;BME280;72192;52.114;5.424;2024-02-23T10:14:06;99047.13;;;6.06;97.26
81125;BME280;72192;52.114;5.424;2024-02-23T10:16:34;99063.84;;;6.08;97.33
81125;BME280;72192;52.114;5.424;2024-02-23T10:19:01;99064.34;;;6.12;96.83
81125;BME280;72192;52.114;5.424;2024-02-23T10:21:32;99078.19;;;6.15;97.25
81125;BME280;72192;52.114;5.424;2024-02-23T10:23:59;99075.88;;;6.12;97.22
81125;BME280;72192;52.114;5.424;2024-02-23T10:26:27;99068.69;;;6.13;97.91
81125;BME280;72192;52.114;5.424;2024-02-23T10:28:55;99068.31;;;6.16;98.33
81125;BME280;72192;52.114;5.424;2024-02-23T10:31:24;99074.31;;;6.18;97.36
81125;BME280;72192;52.114;5.424;2024-02-23T10:33:52;99085.75;;;6.12;97.05
81125;BME280;72192;52.114;5.424;2024-02-23T10:36:29;99081.41;;;6.11;97.63
81125;BME280;72192;52.114;5.424;2024-02-23T10:44:07;99071.66;;;5.87;99.41
81125;BME280;72192;52.114;5.424;2024-02-23T10:46:35;99104.63;;;5.95;98.87
81125;BME280;72192;52.114;5.424;2024-02-23T10:49:04;99117.84;;;5.97;99.75
81125;BME280;72192;52.114;5.424;2024-02-23T10:51:34;99109.47;;;6.00;99.38
81125;BME280;72192;52.114;5.424;2024-02-23T10:54:04;99123.13;;;6.05;99.73
81125;BME280;72192;52.114;5.424;2024-02-23T10:56:34;99110.72;;;6.12;99.31
81125;BME280;72192;52.114;5.424;2024-02-23T10:59:01;99105.56;;;6.25;98.88
81125;BME280;72192;52.114;5.424;2024-02-23T11:01:28;99119.09;;;6.32;96.91
81125;BME280;72192;52.114;5.424;2024-02-23T11:03:56;99102.84;;;6.33;96.10
81125;BME280;72192;52.114;5.424;2024-02-23T11:06:28;99102.78;;;6.56;96.32
81125;BME280;72192;52.114;5.424;2024-02-23T11:09:05;99102.72;;;6.65;95.42
81125;BME280;72192;52.114;5.424;2024-02-23T11:11:51;99112.34;;;6.74;94.74
81125;BME280;72192;52.114;5.424;2024-02-23T11:14:36;99110.25;;;6.84;94.18
81125;BME280;72192;52.114;5.424;2024-02-23T11:17:04;99114.22;;;6.88;94.10
81125;BME280;72192;52.114;5.424;2024-02-23T11:19:33;99122.09;;;6.89;93.93
81125;BME280;72192;52.114;5.424;2024-02-23T11:22:09;99115.34;;;6.94;93.45
81125;BME280;72192;52.114;5.424;2024-02-23T11:24:49;99119.31;;;6.98;93.21
81125;BME280;72192;52.114;5.424;2024-02-23T11:27:24;99116.19;;;7.09;92.87
81125;BME280;72192;52.114;5.424;2024-02-23T11:29:59;99108.31;;;7.07;92.52
81125;BME280;72192;52.114;5.424;2024-02-23T11:35:08;99123.50;;;7.15;92.57
81125;BME280;72192;52.114;5.424;2024-02-23T11:40:25;99100.72;;;7.26;92.43
81125;BME280;72192;52.114;5.424;2024-02-23T11:42:54;99113.41;;;7.32;91.20
81125;BME280;72192;52.114;5.424;2024-02-23T11:45:24;99106.00;;;7.34;91.98
81125;BME280;72192;52.114;5.424;2024-02-23T11:47:52;99120.72;;;7.38;89.81
81125;BME280;72192;52.114;5.424;2024-02-23T11:50:19;99104.06;;;7.42;89.72
81125;BME280;72192;52.114;5.424;2024-02-23T11:52:47;99131.44;;;7.53;89.48
81125;BME280;72192;52.114;5.424;2024-02-23T11:55:19;99127.63;;;7.62;89.29
81125;BME280;72192;52.114;5.424;2024-02-23T11:57:50;99119.50;;;7.55;88.92
81125;BME280;72192;52.114;5.424;2024-02-23T12:00:31;99126.47;;;7.50;89.20
81125;BME280;72192;52.114;5.424;2024-02-23T12:02:58;99131.34;;;7.46;89.83
81125;BME280;72192;52.114;5.424;2024-02-23T12:05:26;99132.13;;;7.40;89.79
81125;BME280;72192;52.114;5.424;2024-02-23T12:07:54;99139.59;;;7.44;90.38
81125;BME280;72192;52.114;5.424;2024-02-23T12:10:23;99135.69;;;7.47;90.43
81125;BME280;72192;52.114;5.424;2024-02-23T12:12:54;99134.22;;;7.44;90.29
81125;BME280;72192;52.114;5.424;2024-02-23T12:15:22;99138.50;;;7.39;88.44
81125;BME280;72192;52.114;5.424;2024-02-23T12:17:49;99147.00;;;7.42;90.58
81125;BME280;72192;52.114;5.424;2024-02-23T12:20:19;99132.03;;;7.48;89.19
81125;BME280;72192;52.114;5.424;2024-02-23T12:22:47;99125.25;;;7.52;88.00
81125;BME280;72192;52.114;5.424;2024-02-23T12:25:15;99139.22;;;7.62;87.90
81125;BME280;72192;52.114;5.424;2024-02-23T12:27:43;99129.38;;;7.69;88.47
81125;BME280;72192;52.114;5.424;2024-02-23T12:30:14;99130.03;;;7.71;87.11
81125;BME280;72192;52.114;5.424;2024-02-23T12:32:43;99142.06;;;7.75;86.67
81125;BME280;72192;52.114;5.424;2024-02-23T12:35:11;99131.50;;;7.74;86.83
81125;BME280;72192;52.114;5.424;2024-02-23T12:37:39;99131.31;;;7.75;86.70
81125;BME280;72192;52.114;5.424;2024-02-23T12:40:11;99129.28;;;7.78;86.80
81125;BME280;72192;52.114;5.424;2024-02-23T12:42:39;99145.66;;;7.83;86.94
81125;BME280;72192;52.114;5.424;2024-02-23T12:47:50;99146.59;;;8.11;86.22
81125;BME280;72192;52.114;5.424;2024-02-23T12:50:17;99146.63;;;8.32;82.96
81125;BME280;72192;52.114;5.424;2024-02-23T12:55:15;99125.78;;;8.34;83.02
81125;BME280;72192;52.114;5.424;2024-02-23T12:57:46;99136.66;;;8.26;83.43
81125;BME280;72192;52.114;5.424;2024-02-23T13:02:44;99142.38;;;8.23;83.36
81125;BME280;72192;52.114;5.424;2024-02-23T13:05:18;99139.56;;;8.10;82.69
81125;BME280;72192;52.114;5.424;2024-02-23T13:07:51;99145.19;;;8.15;82.94
81125;BME280;72192;52.114;5.424;2024-02-23T13:13:02;99175.47;;;8.24;83.33
81125;BME280;72192;52.114;5.424;2024-02-23T13:18:14;99173.25;;;8.27;83.85
81125;BME280;72192;52.114;5.424;2024-02-23T13:21:16;99167.53;;;8.16;83.88
81125;BME280;72192;52.114;5.424;2024-02-23T13:23:46;99162.53;;;8.13;83.70
81125;BME280;72192;52.114;5.424;2024-02-23T13:26:15;99161.06;;;8.10;83.33
81125;BME280;72192;52.114;5.424;2024-02-23T13:28:48;99164.78;;;8.09;83.77
81125;BME280;72192;52.114;5.424;2024-02-23T13:31:17;99141.34;;;8.03;82.65
81125;BME280;72192;52.114;5.424;2024-02-23T13:33:46;99169.16;;;8.31;83.26
81125;BME280;72192;52.114;5.424;2024-02-23T13:36:15;99161.50;;;8.50;80.13
81125;BME280;72192;52.114;5.424;2024-02-23T13:38:43;99163.31;;;8.92;78.30
81125;BME280;72192;52.114;5.424;2024-02-23T13:41:12;99143.72;;;8.49;79.33
81125;BME280;72192;52.114;5.424;2024-02-23T13:43:41;99153.66;;;8.33;80.18
81125;BME280;72192;52.114;5.424;2024-02-23T13:46:09;99156.09;;;8.28;81.63
81125;BME280;72192;52.114;5.424;2024-02-23T13:48:40;99165.00;;;8.29;80.84
81125;BME280;72192;52.114;5.424;2024-02-23T13:51:18;99175.66;;;8.22;81.56
81125;BME280;72192;52.114;5.424;2024-02-23T13:57:04;99176.94;;;8.41;82.36
81125;BME280;72192;52.114;5.424;2024-02-23T13:59:46;99169.63;;;8.35;81.40
81125;BME280;72192;52.114;5.424;2024-02-23T14:02:13;99181.50;;;8.41;81.40
81125;BME280;72192;52.114;5.424;2024-02-23T14:04:42;99179.72;;;8.33;80.47
81125;BME280;72192;52.114;5.424;2024-02-23T14:07:09;99192.44;;;8.39;80.92
81125;BME280;72192;52.114;5.424;2024-02-23T14:09:36;99190.78;;;8.38;81.04
81125;BME280;72192;52.114;5.424;2024-02-23T14:12:03;99198.53;;;8.33;80.88
81125;BME280;72192;52.114;5.424;2024-02-23T14:14:31;99199.03;;;8.22;80.81
81125;BME280;72192;52.114;5.424;2024-02-23T14:16:58;99199.19;;;8.35;80.91
81125;BME280;72192;52.114;5.424;2024-02-23T14:19:25;99204.31;;;8.66;80.70
81125;BME280;72192;52.114;5.424;2024-02-23T14:21:52;99194.38;;;8.95;80.05
81125;BME280;72192;52.114;5.424;2024-02-23T14:24:19;99202.22;;;8.89;80.98
81125;BME280;72192;52.114;5.424;2024-02-23T14:26:46;99198.84;;;8.81;81.03
81125;BME280;72192;52.114;5.424;2024-02-23T14:29:13;99200.94;;;8.64;81.65
81125;BME280;72192;52.114;5.424;2024-02-23T14:31:40;99198.78;;;8.53;81.75
81125;BME280;72192;52.114;5.424;2024-02-23T14:34:07;99198.72;;;8.46;82.50
81125;BME280;72192;52.114;5.424;2024-02-23T14:36:35;99189.94;;;8.38;82.56
81125;BME280;72192;52.114;5.424;2024-02-23T14:39:02;99201.81;;;8.28;80.43
81125;BME280;72192;52.114;5.424;2024-02-23T14:41:31;99206.28;;;8.21;79.44
81125;BME280;72192;52.114;5.424;2024-02-23T14:43:58;99201.63;;;8.15;79.60
81125;BME280;72192;52.114;5.424;2024-02-23T14:46:25;99210.19;;;8.19;80.31
81125;BME280;72192;52.114;5.424;2024-02-23T14:48:52;99216.63;;;8.24;80.14
81125;BME280;72192;52.114;5.424;2024-02-23T14:51:20;99210.06;;;8.27;79.93
81125;BME280;72192;52.114;5.424;2024-02-23T14:53:47;99213.94;;;8.24;80.45
81125;BME280;72192;52.114;5.424;2024-02-23T14:56:14;99212.66;;;8.20;80.30
81125;BME280;72192;52.114;5.424;2024-02-23T14:58:41;99218.88;;;8.21;81.27
81125;BME280;72192;52.114;5.424;2024-02-23T15:01:11;99232.97;;;8.23;81.97
81125;BME280;72192;52.114;5.424;2024-02-23T15:03:41;99225.66;;;8.17;81.08
81125;BME280;72192;52.114;5.424;2024-02-23T15:06:08;99229.19;;;8.17;82.14
81125;BME280;72192;52.114;5.424;2024-02-23T15:08:37;99233.16;;;8.21;81.91
81125;BME280;72192;52.114;5.424;2024-02-23T15:11:04;99229.19;;;8.17;81.34
81125;BME280;72192;52.114;5.424;2024-02-23T15:13:33;99229.50;;;8.08;81.18
81125;BME280;72192;52.114;5.424;2024-02-23T15:16:00;99236.63;;;8.00;81.46